Página principal
METAR-TAF:

METAR-TAF

Aeroportos :

Aeroporto Internacional de Taiwan Taoyuan

Taipé, Taiwan

latitude: 25-05N, longitude: 121-13E, altura: 33 m

Observação actual do tempo

O boletim foi feito há 29 minutos, às 14:00 UTC
Vento 17 kt de es-nordeste
Temperatura 30°C
Humidade 70%
Pressão 1005 hPa
Visibilidade 10 km ou mais
Poucas nuvensa uma altura de 2500 ft

METAR: RCTP 181400Z 07017KT 9999 FEW025 30/24 Q1005 NOSIG RMK A2969

Hora: 22:29 (14:29 UTC)

Previsão

O boletim foi feito há 3 horas e 29 minutos, às 11:00 UTC
Previsão válida de 18 às 12 UTC a 19 às 18 UTC
Vento 18 kt de este
Visibilidade 10 km ou mais
Poucas nuvensa uma altura de 1500 ft
Temporariamente
de 18 às 20 UTC a 19 às 02 UTC
Vento 13 kt de este
Tornando-se
de 19 às 03 UTC a 19 às 05 UTC
Vento 15 kt de nordeste
Temporariamente
de 19 às 12 UTC a 19 às 18 UTC
Vento 13 kt de este

TAF: RCTP 181100Z 1812/1918 08018KT 9999 FEW015 TEMPO 1820/1902 10013KT BECMG 1903/1905 05015KT TEMPO 1912/1918 09013KT

Observações e previsões do tempo de mais de 4000 aeroportos (mensagens METAR e TAF).

As estações disponíveis são os pontos amarelos e vermelhos sobre o mapa.

Mova o rato sobre o mapa para ver o nome da estação.

Depois clique no ponto para visualizar as observações e previsões meteorológicas.

Para alterar o mapa : clique nos botões verdes com uma cruz preta para aumentar o zoom; no botão verde com uma pitada de zoom; ou nas setas verdes para mapas adjacentes.


METAR-TAF: